sensor_id;sensor_type;location;lat;lon;timestamp;P1;durP1;ratioP1;P2;durP2;ratioP2
34489;SDS011;20730;49.372;7.324;2023-06-22T00:00:05;8.48;;;7.57;;
34489;SDS011;20730;49.372;7.324;2023-06-22T00:02:37;12.65;;;8.10;;
34489;SDS011;20730;49.372;7.324;2023-06-22T00:05:04;9.45;;;7.50;;
34489;SDS011;20730;49.372;7.324;2023-06-22T00:07:31;11.45;;;8.55;;
34489;SDS011;20730;49.372;7.324;2023-06-22T00:09:58;18.33;;;8.90;;
34489;SDS011;20730;49.372;7.324;2023-06-22T00:12:24;13.02;;;8.73;;
34489;SDS011;20730;49.372;7.324;2023-06-22T00:14:51;14.85;;;9.57;;
34489;SDS011;20730;49.372;7.324;2023-06-22T00:17:18;12.82;;;9.23;;
34489;SDS011;20730;49.372;7.324;2023-06-22T00:19:46;12.10;;;9.48;;
34489;SDS011;20730;49.372;7.324;2023-06-22T00:22:13;13.48;;;9.55;;
34489;SDS011;20730;49.372;7.324;2023-06-22T00:24:40;15.18;;;10.05;;
34489;SDS011;20730;49.372;7.324;2023-06-22T00:27:07;13.32;;;10.35;;
34489;SDS011;20730;49.372;7.324;2023-06-22T00:29:34;11.52;;;10.35;;
34489;SDS011;20730;49.372;7.324;2023-06-22T00:32:00;14.38;;;10.30;;
34489;SDS011;20730;49.372;7.324;2023-06-22T00:34:27;11.63;;;9.73;;
34489;SDS011;20730;49.372;7.324;2023-06-22T00:36:54;13.63;;;9.95;;
34489;SDS011;20730;49.372;7.324;2023-06-22T00:39:22;12.95;;;9.93;;
34489;SDS011;20730;49.372;7.324;2023-06-22T00:41:49;11.63;;;9.88;;
34489;SDS011;20730;49.372;7.324;2023-06-22T00:44:16;11.27;;;10.07;;
34489;SDS011;20730;49.372;7.324;2023-06-22T00:46:42;11.68;;;10.35;;
34489;SDS011;20730;49.372;7.324;2023-06-22T00:49:09;13.48;;;10.82;;
34489;SDS011;20730;49.372;7.324;2023-06-22T00:51:37;12.68;;;10.63;;
34489;SDS011;20730;49.372;7.324;2023-06-22T00:54:04;13.02;;;11.10;;
34489;SDS011;20730;49.372;7.324;2023-06-22T00:56:31;12.98;;;10.90;;
34489;SDS011;20730;49.372;7.324;2023-06-22T00:59:01;16.55;;;11.40;;
34489;SDS011;20730;49.372;7.324;2023-06-22T01:01:29;15.48;;;12.50;;
34489;SDS011;20730;49.372;7.324;2023-06-22T01:03:56;16.63;;;12.60;;
34489;SDS011;20730;49.372;7.324;2023-06-22T01:06:29;13.57;;;12.18;;
34489;SDS011;20730;49.372;7.324;2023-06-22T01:09:27;16.30;;;12.30;;
34489;SDS011;20730;49.372;7.324;2023-06-22T01:11:57;15.15;;;12.57;;
34489;SDS011;20730;49.372;7.324;2023-06-22T01:17:01;14.57;;;12.45;;
34489;SDS011;20730;49.372;7.324;2023-06-22T01:19:45;19.08;;;12.80;;
34489;SDS011;20730;49.372;7.324;2023-06-22T01:22:28;17.80;;;12.35;;
34489;SDS011;20730;49.372;7.324;2023-06-22T01:25:00;15.30;;;11.98;;
34489;SDS011;20730;49.372;7.324;2023-06-22T01:30:08;15.55;;;12.50;;
34489;SDS011;20730;49.372;7.324;2023-06-22T01:32:37;16.23;;;13.05;;
34489;SDS011;20730;49.372;7.324;2023-06-22T01:35:05;15.57;;;11.57;;
34489;SDS011;20730;49.372;7.324;2023-06-22T01:37:34;12.73;;;11.43;;
34489;SDS011;20730;49.372;7.324;2023-06-22T01:40:02;12.77;;;11.00;;
34489;SDS011;20730;49.372;7.324;2023-06-22T01:42:31;13.38;;;10.60;;
34489;SDS011;20730;49.372;7.324;2023-06-22T01:44:59;14.40;;;10.95;;
34489;SDS011;20730;49.372;7.324;2023-06-22T01:47:26;13.18;;;10.63;;
34489;SDS011;20730;49.372;7.324;2023-06-22T01:49:54;12.07;;;10.63;;
34489;SDS011;20730;49.372;7.324;2023-06-22T01:52:21;12.73;;;11.27;;
34489;SDS011;20730;49.372;7.324;2023-06-22T01:54:48;13.20;;;11.32;;
34489;SDS011;20730;49.372;7.324;2023-06-22T01:57:15;14.15;;;11.38;;
34489;SDS011;20730;49.372;7.324;2023-06-22T01:59:52;13.43;;;12.02;;
34489;SDS011;20730;49.372;7.324;2023-06-22T02:02:27;15.50;;;13.05;;
34489;SDS011;20730;49.372;7.324;2023-06-22T02:05:06;16.08;;;13.32;;
34489;SDS011;20730;49.372;7.324;2023-06-22T02:07:47;14.85;;;13.27;;
34489;SDS011;20730;49.372;7.324;2023-06-22T02:10:19;14.23;;;12.73;;
34489;SDS011;20730;49.372;7.324;2023-06-22T02:12:46;16.38;;;13.93;;
34489;SDS011;20730;49.372;7.324;2023-06-22T02:15:14;15.93;;;14.05;;
34489;SDS011;20730;49.372;7.324;2023-06-22T02:17:45;16.48;;;13.93;;
34489;SDS011;20730;49.372;7.324;2023-06-22T02:20:13;15.57;;;13.90;;
34489;SDS011;20730;49.372;7.324;2023-06-22T02:22:42;17.00;;;14.25;;
34489;SDS011;20730;49.372;7.324;2023-06-22T02:25:10;18.10;;;13.63;;
34489;SDS011;20730;49.372;7.324;2023-06-22T02:27:36;15.65;;;13.95;;
34489;SDS011;20730;49.372;7.324;2023-06-22T02:30:09;20.05;;;14.20;;
34489;SDS011;20730;49.372;7.324;2023-06-22T02:32:38;15.00;;;12.70;;
34489;SDS011;20730;49.372;7.324;2023-06-22T02:35:08;16.50;;;12.93;;
34489;SDS011;20730;49.372;7.324;2023-06-22T02:37:36;14.73;;;13.25;;
34489;SDS011;20730;49.372;7.324;2023-06-22T02:40:08;17.67;;;12.80;;
34489;SDS011;20730;49.372;7.324;2023-06-22T02:42:36;15.85;;;13.38;;
34489;SDS011;20730;49.372;7.324;2023-06-22T02:45:03;14.63;;;13.07;;
34489;SDS011;20730;49.372;7.324;2023-06-22T02:47:30;19.05;;;13.48;;
34489;SDS011;20730;49.372;7.324;2023-06-22T02:49:57;18.17;;;13.43;;
34489;SDS011;20730;49.372;7.324;2023-06-22T02:52:24;14.77;;;13.07;;
34489;SDS011;20730;49.372;7.324;2023-06-22T02:54:51;15.00;;;13.10;;
34489;SDS011;20730;49.372;7.324;2023-06-22T02:57:18;16.63;;;14.65;;
34489;SDS011;20730;49.372;7.324;2023-06-22T02:59:45;20.80;;;14.35;;
34489;SDS011;20730;49.372;7.324;2023-06-22T03:02:12;15.95;;;14.30;;
34489;SDS011;20730;49.372;7.324;2023-06-22T03:04:40;18.35;;;13.68;;
34489;SDS011;20730;49.372;7.324;2023-06-22T03:07:07;18.63;;;13.95;;
34489;SDS011;20730;49.372;7.324;2023-06-22T03:09:34;18.25;;;14.85;;
34489;SDS011;20730;49.372;7.324;2023-06-22T03:12:00;19.23;;;14.52;;
34489;SDS011;20730;49.372;7.324;2023-06-22T03:14:42;20.98;;;16.17;;
34489;SDS011;20730;49.372;7.324;2023-06-22T03:17:09;22.73;;;15.90;;
34489;SDS011;20730;49.372;7.324;2023-06-22T03:19:37;22.33;;;16.00;;
34489;SDS011;20730;49.372;7.324;2023-06-22T03:22:04;17.48;;;15.25;;
34489;SDS011;20730;49.372;7.324;2023-06-22T03:24:31;19.02;;;15.50;;
34489;SDS011;20730;49.372;7.324;2023-06-22T03:26:58;17.65;;;15.82;;
34489;SDS011;20730;49.372;7.324;2023-06-22T03:29:24;18.98;;;16.52;;
34489;SDS011;20730;49.372;7.324;2023-06-22T03:31:55;20.08;;;16.33;;
34489;SDS011;20730;49.372;7.324;2023-06-22T03:34:22;18.42;;;15.75;;
34489;SDS011;20730;49.372;7.324;2023-06-22T03:36:52;22.35;;;16.73;;
34489;SDS011;20730;49.372;7.324;2023-06-22T03:39:18;20.73;;;16.40;;
34489;SDS011;20730;49.372;7.324;2023-06-22T03:41:46;19.50;;;15.82;;
34489;SDS011;20730;49.372;7.324;2023-06-22T03:44:13;19.95;;;16.25;;
34489;SDS011;20730;49.372;7.324;2023-06-22T03:46:42;17.30;;;15.48;;
34489;SDS011;20730;49.372;7.324;2023-06-22T03:49:09;17.58;;;15.50;;
34489;SDS011;20730;49.372;7.324;2023-06-22T03:51:35;19.58;;;16.95;;
34489;SDS011;20730;49.372;7.324;2023-06-22T03:54:02;20.88;;;16.80;;
34489;SDS011;20730;49.372;7.324;2023-06-22T03:56:29;18.30;;;15.85;;
34489;SDS011;20730;49.372;7.324;2023-06-22T03:58:55;17.20;;;15.40;;
34489;SDS011;20730;49.372;7.324;2023-06-22T04:01:22;17.15;;;15.45;;
34489;SDS011;20730;49.372;7.324;2023-06-22T04:03:49;19.25;;;15.07;;
34489;SDS011;20730;49.372;7.324;2023-06-22T04:06:16;16.67;;;14.82;;
34489;SDS011;20730;49.372;7.324;2023-06-22T04:08:44;18.55;;;15.60;;
34489;SDS011;20730;49.372;7.324;2023-06-22T04:11:14;15.57;;;13.98;;
34489;SDS011;20730;49.372;7.324;2023-06-22T04:13:41;17.27;;;14.57;;
34489;SDS011;20730;49.372;7.324;2023-06-22T04:16:08;17.25;;;15.10;;
34489;SDS011;20730;49.372;7.324;2023-06-22T04:18:34;18.30;;;15.18;;
34489;SDS011;20730;49.372;7.324;2023-06-22T04:21:02;20.38;;;15.35;;
34489;SDS011;20730;49.372;7.324;2023-06-22T04:23:29;18.90;;;14.85;;
34489;SDS011;20730;49.372;7.324;2023-06-22T04:25:56;19.50;;;14.65;;
34489;SDS011;20730;49.372;7.324;2023-06-22T04:28:23;16.77;;;14.90;;
34489;SDS011;20730;49.372;7.324;2023-06-22T04:30:53;16.42;;;13.63;;
34489;SDS011;20730;49.372;7.324;2023-06-22T04:33:24;15.45;;;13.75;;
34489;SDS011;20730;49.372;7.324;2023-06-22T04:35:51;15.32;;;13.20;;
34489;SDS011;20730;49.372;7.324;2023-06-22T04:38:18;15.88;;;13.10;;
34489;SDS011;20730;49.372;7.324;2023-06-22T04:40:45;15.13;;;13.10;;
34489;SDS011;20730;49.372;7.324;2023-06-22T04:43:11;15.95;;;12.68;;
34489;SDS011;20730;49.372;7.324;2023-06-22T04:45:38;14.07;;;12.45;;
34489;SDS011;20730;49.372;7.324;2023-06-22T04:48:05;16.05;;;12.88;;
34489;SDS011;20730;49.372;7.324;2023-06-22T04:50:32;14.82;;;13.07;;
34489;SDS011;20730;49.372;7.324;2023-06-22T04:52:59;15.55;;;13.40;;
34489;SDS011;20730;49.372;7.324;2023-06-22T04:55:25;15.50;;;13.88;;
34489;SDS011;20730;49.372;7.324;2023-06-22T04:57:52;15.48;;;13.88;;
34489;SDS011;20730;49.372;7.324;2023-06-22T05:00:19;15.68;;;14.07;;
34489;SDS011;20730;49.372;7.324;2023-06-22T05:02:46;15.02;;;13.50;;
34489;SDS011;20730;49.372;7.324;2023-06-22T05:05:13;17.40;;;13.57;;
34489;SDS011;20730;49.372;7.324;2023-06-22T05:07:42;15.05;;;13.32;;
34489;SDS011;20730;49.372;7.324;2023-06-22T05:10:10;17.83;;;13.98;;
34489;SDS011;20730;49.372;7.324;2023-06-22T05:12:39;16.58;;;14.70;;
34489;SDS011;20730;49.372;7.324;2023-06-22T05:15:06;16.65;;;14.15;;
34489;SDS011;20730;49.372;7.324;2023-06-22T05:17:34;17.83;;;14.80;;
34489;SDS011;20730;49.372;7.324;2023-06-22T05:20:02;17.05;;;14.60;;
34489;SDS011;20730;49.372;7.324;2023-06-22T05:24:59;16.83;;;14.13;;
34489;SDS011;20730;49.372;7.324;2023-06-22T05:27:25;16.60;;;13.90;;
34489;SDS011;20730;49.372;7.324;2023-06-22T05:29:52;15.82;;;14.07;;
34489;SDS011;20730;49.372;7.324;2023-06-22T05:32:19;15.02;;;13.43;;
34489;SDS011;20730;49.372;7.324;2023-06-22T05:34:46;16.90;;;13.75;;
34489;SDS011;20730;49.372;7.324;2023-06-22T05:37:13;18.27;;;14.23;;
34489;SDS011;20730;49.372;7.324;2023-06-22T05:39:40;16.70;;;14.43;;
34489;SDS011;20730;49.372;7.324;2023-06-22T05:42:07;15.20;;;13.60;;
34489;SDS011;20730;49.372;7.324;2023-06-22T05:44:36;16.70;;;14.88;;
34489;SDS011;20730;49.372;7.324;2023-06-22T05:47:04;16.92;;;15.20;;
34489;SDS011;20730;49.372;7.324;2023-06-22T05:49:31;16.23;;;14.50;;
34489;SDS011;20730;49.372;7.324;2023-06-22T05:51:59;16.90;;;14.85;;
34489;SDS011;20730;49.372;7.324;2023-06-22T05:54:27;16.55;;;14.85;;
34489;SDS011;20730;49.372;7.324;2023-06-22T05:56:54;20.77;;;15.77;;
34489;SDS011;20730;49.372;7.324;2023-06-22T05:59:21;18.08;;;15.60;;
34489;SDS011;20730;49.372;7.324;2023-06-22T06:01:48;18.70;;;16.63;;
34489;SDS011;20730;49.372;7.324;2023-06-22T06:04:18;18.13;;;15.55;;
34489;SDS011;20730;49.372;7.324;2023-06-22T06:06:45;17.55;;;15.57;;
34489;SDS011;20730;49.372;7.324;2023-06-22T06:09:13;17.15;;;15.40;;
34489;SDS011;20730;49.372;7.324;2023-06-22T06:11:41;18.48;;;15.65;;
34489;SDS011;20730;49.372;7.324;2023-06-22T06:14:08;17.52;;;15.05;;
34489;SDS011;20730;49.372;7.324;2023-06-22T06:16:35;16.33;;;14.57;;
34489;SDS011;20730;49.372;7.324;2023-06-22T06:19:02;16.40;;;14.48;;
34489;SDS011;20730;49.372;7.324;2023-06-22T06:21:28;14.63;;;13.13;;
34489;SDS011;20730;49.372;7.324;2023-06-22T06:23:56;15.55;;;13.93;;
34489;SDS011;20730;49.372;7.324;2023-06-22T06:26:23;17.45;;;13.75;;
34489;SDS011;20730;49.372;7.324;2023-06-22T06:28:56;15.27;;;13.68;;
34489;SDS011;20730;49.372;7.324;2023-06-22T06:31:23;15.75;;;13.55;;
34489;SDS011;20730;49.372;7.324;2023-06-22T06:33:50;14.77;;;13.07;;
34489;SDS011;20730;49.372;7.324;2023-06-22T06:36:17;14.60;;;12.70;;
34489;SDS011;20730;49.372;7.324;2023-06-22T06:38:44;13.95;;;11.45;;
34489;SDS011;20730;49.372;7.324;2023-06-22T06:41:10;14.27;;;12.13;;
34489;SDS011;20730;49.372;7.324;2023-06-22T06:43:37;16.83;;;12.23;;
34489;SDS011;20730;49.372;7.324;2023-06-22T06:46:04;15.65;;;12.40;;
34489;SDS011;20730;49.372;7.324;2023-06-22T06:48:31;14.65;;;12.10;;
34489;SDS011;20730;49.372;7.324;2023-06-22T06:50:58;17.60;;;12.68;;
34489;SDS011;20730;49.372;7.324;2023-06-22T06:53:24;17.63;;;12.73;;
34489;SDS011;20730;49.372;7.324;2023-06-22T06:55:51;13.93;;;12.50;;
34489;SDS011;20730;49.372;7.324;2023-06-22T06:58:18;13.20;;;11.90;;
34489;SDS011;20730;49.372;7.324;2023-06-22T07:00:45;14.52;;;10.88;;
34489;SDS011;20730;49.372;7.324;2023-06-22T07:03:12;12.60;;;10.35;;
34489;SDS011;20730;49.372;7.324;2023-06-22T07:05:39;12.35;;;10.02;;
34489;SDS011;20730;49.372;7.324;2023-06-22T07:08:06;15.25;;;10.50;;
34489;SDS011;20730;49.372;7.324;2023-06-22T07:10:33;13.80;;;9.75;;
34489;SDS011;20730;49.372;7.324;2023-06-22T07:13:00;12.43;;;10.02;;
34489;SDS011;20730;49.372;7.324;2023-06-22T07:15:27;10.30;;;9.15;;
34489;SDS011;20730;49.372;7.324;2023-06-22T07:17:54;12.13;;;9.25;;
34489;SDS011;20730;49.372;7.324;2023-06-22T07:20:21;10.25;;;8.65;;
34489;SDS011;20730;49.372;7.324;2023-06-22T07:22:48;11.35;;;8.95;;
34489;SDS011;20730;49.372;7.324;2023-06-22T07:25:14;12.05;;;9.43;;
34489;SDS011;20730;49.372;7.324;2023-06-22T07:27:45;12.00;;;9.40;;
34489;SDS011;20730;49.372;7.324;2023-06-22T07:30:22;14.32;;;9.23;;
34489;SDS011;20730;49.372;7.324;2023-06-22T07:32:49;11.85;;;10.00;;
34489;SDS011;20730;49.372;7.324;2023-06-22T07:35:16;11.43;;;9.13;;
34489;SDS011;20730;49.372;7.324;2023-06-22T07:37:43;10.77;;;9.60;;
34489;SDS011;20730;49.372;7.324;2023-06-22T07:40:09;11.80;;;8.93;;
34489;SDS011;20730;49.372;7.324;2023-06-22T07:42:36;12.95;;;8.98;;
34489;SDS011;20730;49.372;7.324;2023-06-22T07:45:03;9.50;;;8.00;;
34489;SDS011;20730;49.372;7.324;2023-06-22T07:47:31;11.00;;;8.10;;
34489;SDS011;20730;49.372;7.324;2023-06-22T07:50:02;11.75;;;8.25;;
34489;SDS011;20730;49.372;7.324;2023-06-22T07:52:29;10.00;;;8.15;;
34489;SDS011;20730;49.372;7.324;2023-06-22T07:54:56;8.95;;;8.00;;
34489;SDS011;20730;49.372;7.324;2023-06-22T07:57:23;10.35;;;6.97;;
34489;SDS011;20730;49.372;7.324;2023-06-22T08:00:02;8.05;;;7.25;;
34489;SDS011;20730;49.372;7.324;2023-06-22T08:02:38;8.57;;;7.43;;
34489;SDS011;20730;49.372;7.324;2023-06-22T08:05:05;9.77;;;7.60;;
34489;SDS011;20730;49.372;7.324;2023-06-22T08:07:46;9.48;;;7.88;;
34489;SDS011;20730;49.372;7.324;2023-06-22T08:10:14;10.93;;;8.15;;
34489;SDS011;20730;49.372;7.324;2023-06-22T08:12:41;10.80;;;7.15;;
34489;SDS011;20730;49.372;7.324;2023-06-22T08:15:08;7.65;;;6.68;;
34489;SDS011;20730;49.372;7.324;2023-06-22T08:17:39;9.57;;;6.70;;
34489;SDS011;20730;49.372;7.324;2023-06-22T08:20:06;6.95;;;6.18;;
34489;SDS011;20730;49.372;7.324;2023-06-22T08:22:38;8.30;;;6.20;;
34489;SDS011;20730;49.372;7.324;2023-06-22T08:25:06;12.75;;;6.63;;
34489;SDS011;20730;49.372;7.324;2023-06-22T08:27:33;7.47;;;5.82;;
34489;SDS011;20730;49.372;7.324;2023-06-22T08:30:00;8.10;;;6.45;;
34489;SDS011;20730;49.372;7.324;2023-06-22T08:32:27;8.95;;;6.55;;
34489;SDS011;20730;49.372;7.324;2023-06-22T08:34:55;8.93;;;6.90;;
34489;SDS011;20730;49.372;7.324;2023-06-22T08:37:22;11.45;;;7.07;;
34489;SDS011;20730;49.372;7.324;2023-06-22T08:39:59;9.25;;;7.07;;
34489;SDS011;20730;49.372;7.324;2023-06-22T08:42:34;8.50;;;6.93;;
34489;SDS011;20730;49.372;7.324;2023-06-22T08:45:02;8.18;;;6.55;;
34489;SDS011;20730;49.372;7.324;2023-06-22T08:47:30;10.93;;;7.75;;
34489;SDS011;20730;49.372;7.324;2023-06-22T08:49:57;7.90;;;7.13;;
34489;SDS011;20730;49.372;7.324;2023-06-22T08:52:24;8.13;;;7.03;;
34489;SDS011;20730;49.372;7.324;2023-06-22T08:54:51;9.57;;;7.43;;
34489;SDS011;20730;49.372;7.324;2023-06-22T08:57:18;7.53;;;6.72;;
34489;SDS011;20730;49.372;7.324;2023-06-22T08:59:45;11.02;;;7.45;;
34489;SDS011;20730;49.372;7.324;2023-06-22T09:02:11;8.75;;;7.00;;
34489;SDS011;20730;49.372;7.324;2023-06-22T09:04:38;11.20;;;7.57;;
34489;SDS011;20730;49.372;7.324;2023-06-22T09:07:05;9.20;;;7.35;;
34489;SDS011;20730;49.372;7.324;2023-06-22T09:09:33;9.43;;;7.47;;
34489;SDS011;20730;49.372;7.324;2023-06-22T09:11:59;9.57;;;7.00;;
34489;SDS011;20730;49.372;7.324;2023-06-22T09:14:26;9.55;;;7.90;;
34489;SDS011;20730;49.372;7.324;2023-06-22T09:16:53;13.52;;;7.28;;
34489;SDS011;20730;49.372;7.324;2023-06-22T09:19:20;8.02;;;6.93;;
34489;SDS011;20730;49.372;7.324;2023-06-22T09:21:47;14.32;;;7.50;;
34489;SDS011;20730;49.372;7.324;2023-06-22T09:24:14;7.78;;;7.00;;
34489;SDS011;20730;49.372;7.324;2023-06-22T09:26:41;9.20;;;7.18;;
34489;SDS011;20730;49.372;7.324;2023-06-22T09:29:07;13.73;;;7.80;;
34489;SDS011;20730;49.372;7.324;2023-06-22T09:31:34;7.78;;;6.97;;
34489;SDS011;20730;49.372;7.324;2023-06-22T09:34:01;8.13;;;7.32;;
34489;SDS011;20730;49.372;7.324;2023-06-22T09:36:28;9.95;;;7.30;;
34489;SDS011;20730;49.372;7.324;2023-06-22T09:38:55;13.73;;;8.52;;
34489;SDS011;20730;49.372;7.324;2023-06-22T09:41:24;10.55;;;7.93;;
34489;SDS011;20730;49.372;7.324;2023-06-22T09:43:51;7.80;;;6.95;;
34489;SDS011;20730;49.372;7.324;2023-06-22T09:46:21;9.95;;;7.07;;
34489;SDS011;20730;49.372;7.324;2023-06-22T09:48:51;11.45;;;7.18;;
34489;SDS011;20730;49.372;7.324;2023-06-22T09:51:18;10.10;;;7.13;;
34489;SDS011;20730;49.372;7.324;2023-06-22T09:53:46;11.07;;;7.35;;
34489;SDS011;20730;49.372;7.324;2023-06-22T09:56:13;8.45;;;6.90;;
34489;SDS011;20730;49.372;7.324;2023-06-22T09:58:43;9.27;;;6.10;;
34489;SDS011;20730;49.372;7.324;2023-06-22T10:01:10;13.43;;;7.07;;
34489;SDS011;20730;49.372;7.324;2023-06-22T10:03:37;9.75;;;6.15;;
34489;SDS011;20730;49.372;7.324;2023-06-22T10:06:04;11.10;;;6.80;;
34489;SDS011;20730;49.372;7.324;2023-06-22T10:08:31;8.82;;;5.97;;
34489;SDS011;20730;49.372;7.324;2023-06-22T10:10:58;10.30;;;5.93;;
34489;SDS011;20730;49.372;7.324;2023-06-22T10:13:24;9.32;;;6.45;;
34489;SDS011;20730;49.372;7.324;2023-06-22T10:15:51;11.95;;;6.55;;
34489;SDS011;20730;49.372;7.324;2023-06-22T10:18:18;10.13;;;5.82;;
34489;SDS011;20730;49.372;7.324;2023-06-22T10:20:47;11.15;;;6.13;;
34489;SDS011;20730;49.372;7.324;2023-06-22T10:23:14;10.05;;;6.03;;
34489;SDS011;20730;49.372;7.324;2023-06-22T10:25:41;8.27;;;6.25;;
34489;SDS011;20730;49.372;7.324;2023-06-22T10:28:08;10.18;;;6.60;;
34489;SDS011;20730;49.372;7.324;2023-06-22T10:30:35;10.43;;;6.30;;
34489;SDS011;20730;49.372;7.324;2023-06-22T10:33:02;11.93;;;7.10;;
34489;SDS011;20730;49.372;7.324;2023-06-22T10:35:28;8.15;;;6.20;;
34489;SDS011;20730;49.372;7.324;2023-06-22T10:37:56;9.50;;;6.70;;
34489;SDS011;20730;49.372;7.324;2023-06-22T10:40:23;13.02;;;6.80;;
34489;SDS011;20730;49.372;7.324;2023-06-22T10:42:49;9.07;;;7.25;;
34489;SDS011;20730;49.372;7.324;2023-06-22T10:45:16;8.77;;;6.82;;
34489;SDS011;20730;49.372;7.324;2023-06-22T10:47:43;9.90;;;6.53;;
34489;SDS011;20730;49.372;7.324;2023-06-22T10:50:10;8.93;;;6.40;;
34489;SDS011;20730;49.372;7.324;2023-06-22T10:52:37;12.25;;;7.40;;
34489;SDS011;20730;49.372;7.324;2023-06-22T10:55:04;10.45;;;6.65;;
34489;SDS011;20730;49.372;7.324;2023-06-22T10:57:31;11.82;;;6.43;;
34489;SDS011;20730;49.372;7.324;2023-06-22T10:59:58;10.85;;;6.82;;
34489;SDS011;20730;49.372;7.324;2023-06-22T11:02:25;8.65;;;6.07;;
34489;SDS011;20730;49.372;7.324;2023-06-22T11:07:21;10.50;;;6.53;;
34489;SDS011;20730;49.372;7.324;2023-06-22T11:09:48;10.02;;;6.32;;
34489;SDS011;20730;49.372;7.324;2023-06-22T11:12:14;10.52;;;6.60;;
34489;SDS011;20730;49.372;7.324;2023-06-22T11:14:41;9.57;;;6.30;;
34489;SDS011;20730;49.372;7.324;2023-06-22T11:17:08;13.60;;;6.53;;
34489;SDS011;20730;49.372;7.324;2023-06-22T11:19:35;12.05;;;6.35;;
34489;SDS011;20730;49.372;7.324;2023-06-22T11:22:02;12.65;;;5.55;;
34489;SDS011;20730;49.372;7.324;2023-06-22T11:24:29;13.68;;;6.30;;
34489;SDS011;20730;49.372;7.324;2023-06-22T11:26:56;11.75;;;6.63;;
34489;SDS011;20730;49.372;7.324;2023-06-22T11:29:25;9.90;;;6.45;;
34489;SDS011;20730;49.372;7.324;2023-06-22T11:32:03;9.35;;;5.78;;
34489;SDS011;20730;49.372;7.324;2023-06-22T11:34:30;14.13;;;5.90;;
34489;SDS011;20730;49.372;7.324;2023-06-22T11:36:57;9.75;;;6.28;;
34489;SDS011;20730;49.372;7.324;2023-06-22T11:39:23;12.68;;;6.18;;
34489;SDS011;20730;49.372;7.324;2023-06-22T11:42:06;9.85;;;6.28;;
34489;SDS011;20730;49.372;7.324;2023-06-22T11:44:33;13.90;;;6.13;;
34489;SDS011;20730;49.372;7.324;2023-06-22T11:47:00;8.80;;;5.63;;
34489;SDS011;20730;49.372;7.324;2023-06-22T11:49:27;12.00;;;6.30;;
34489;SDS011;20730;49.372;7.324;2023-06-22T11:51:54;13.75;;;6.20;;
34489;SDS011;20730;49.372;7.324;2023-06-22T11:54:20;11.18;;;6.28;;
34489;SDS011;20730;49.372;7.324;2023-06-22T11:56:47;8.70;;;5.40;;
34489;SDS011;20730;49.372;7.324;2023-06-22T11:59:14;10.48;;;5.72;;
34489;SDS011;20730;49.372;7.324;2023-06-22T12:01:41;11.90;;;5.75;;
34489;SDS011;20730;49.372;7.324;2023-06-22T12:04:08;10.55;;;5.57;;
34489;SDS011;20730;49.372;7.324;2023-06-22T12:06:37;10.85;;;5.40;;
34489;SDS011;20730;49.372;7.324;2023-06-22T12:09:07;18.58;;;5.90;;
34489;SDS011;20730;49.372;7.324;2023-06-22T12:11:34;12.93;;;5.85;;
34489;SDS011;20730;49.372;7.324;2023-06-22T12:14:01;11.52;;;5.22;;
34489;SDS011;20730;49.372;7.324;2023-06-22T12:16:29;12.07;;;5.95;;
34489;SDS011;20730;49.372;7.324;2023-06-22T12:18:55;8.68;;;5.50;;
34489;SDS011;20730;49.372;7.324;2023-06-22T12:21:22;12.98;;;6.05;;
34489;SDS011;20730;49.372;7.324;2023-06-22T12:23:49;10.38;;;5.60;;
34489;SDS011;20730;49.372;7.324;2023-06-22T12:26:16;11.75;;;5.82;;
34489;SDS011;20730;49.372;7.324;2023-06-22T12:28:43;12.68;;;5.75;;
34489;SDS011;20730;49.372;7.324;2023-06-22T12:31:09;17.95;;;6.57;;
34489;SDS011;20730;49.372;7.324;2023-06-22T12:33:36;15.52;;;5.93;;
34489;SDS011;20730;49.372;7.324;2023-06-22T12:36:03;16.73;;;5.53;;
34489;SDS011;20730;49.372;7.324;2023-06-22T12:38:31;13.75;;;5.40;;
34489;SDS011;20730;49.372;7.324;2023-06-22T12:40:58;13.60;;;5.57;;
34489;SDS011;20730;49.372;7.324;2023-06-22T12:43:25;11.13;;;5.43;;
34489;SDS011;20730;49.372;7.324;2023-06-22T12:45:52;16.38;;;5.85;;
34489;SDS011;20730;49.372;7.324;2023-06-22T12:48:22;14.50;;;5.80;;
34489;SDS011;20730;49.372;7.324;2023-06-22T12:50:49;14.35;;;5.72;;
34489;SDS011;20730;49.372;7.324;2023-06-22T12:53:16;10.27;;;5.50;;
34489;SDS011;20730;49.372;7.324;2023-06-22T12:55:42;16.33;;;5.50;;
34489;SDS011;20730;49.372;7.324;2023-06-22T12:58:09;11.73;;;5.35;;
34489;SDS011;20730;49.372;7.324;2023-06-22T13:00:38;14.43;;;5.70;;
34489;SDS011;20730;49.372;7.324;2023-06-22T13:03:05;14.55;;;5.80;;
34489;SDS011;20730;49.372;7.324;2023-06-22T13:05:32;11.40;;;5.20;;
34489;SDS011;20730;49.372;7.324;2023-06-22T13:08:01;15.25;;;5.63;;
34489;SDS011;20730;49.372;7.324;2023-06-22T13:10:29;16.67;;;5.82;;
34489;SDS011;20730;49.372;7.324;2023-06-22T13:12:57;17.77;;;6.50;;
34489;SDS011;20730;49.372;7.324;2023-06-22T13:15:28;21.77;;;6.10;;
34489;SDS011;20730;49.372;7.324;2023-06-22T13:17:55;15.15;;;5.68;;
34489;SDS011;20730;49.372;7.324;2023-06-22T13:20:23;13.70;;;5.57;;
34489;SDS011;20730;49.372;7.324;2023-06-22T13:22:49;15.38;;;5.97;;
34489;SDS011;20730;49.372;7.324;2023-06-22T13:25:16;16.67;;;5.68;;
34489;SDS011;20730;49.372;7.324;2023-06-22T13:27:45;14.27;;;4.85;;
34489;SDS011;20730;49.372;7.324;2023-06-22T13:30:12;23.45;;;5.95;;
34489;SDS011;20730;49.372;7.324;2023-06-22T13:32:40;23.15;;;5.65;;
34489;SDS011;20730;49.372;7.324;2023-06-22T13:35:11;18.88;;;5.20;;
34489;SDS011;20730;49.372;7.324;2023-06-22T13:37:38;18.73;;;5.60;;
34489;SDS011;20730;49.372;7.324;2023-06-22T13:40:05;22.13;;;5.40;;
34489;SDS011;20730;49.372;7.324;2023-06-22T13:42:33;12.60;;;5.25;;
34489;SDS011;20730;49.372;7.324;2023-06-22T13:45:00;16.90;;;4.55;;
34489;SDS011;20730;49.372;7.324;2023-06-22T13:47:29;21.80;;;4.90;;
34489;SDS011;20730;49.372;7.324;2023-06-22T13:49:57;17.50;;;4.70;;
34489;SDS011;20730;49.372;7.324;2023-06-22T13:52:24;19.13;;;5.00;;
34489;SDS011;20730;49.372;7.324;2023-06-22T13:54:52;15.23;;;4.50;;
34489;SDS011;20730;49.372;7.324;2023-06-22T13:57:19;14.35;;;4.40;;
34489;SDS011;20730;49.372;7.324;2023-06-22T13:59:45;12.93;;;4.45;;
34489;SDS011;20730;49.372;7.324;2023-06-22T14:02:12;16.58;;;4.25;;
34489;SDS011;20730;49.372;7.324;2023-06-22T14:04:39;18.48;;;4.43;;
34489;SDS011;20730;49.372;7.324;2023-06-22T14:07:06;16.70;;;4.93;;
34489;SDS011;20730;49.372;7.324;2023-06-22T14:09:33;21.02;;;5.25;;
34489;SDS011;20730;49.372;7.324;2023-06-22T14:12:04;15.88;;;4.22;;
34489;SDS011;20730;49.372;7.324;2023-06-22T14:14:32;14.98;;;4.40;;
34489;SDS011;20730;49.372;7.324;2023-06-22T14:16:59;15.43;;;4.63;;
34489;SDS011;20730;49.372;7.324;2023-06-22T14:19:26;15.75;;;4.85;;
34489;SDS011;20730;49.372;7.324;2023-06-22T14:21:53;16.52;;;4.40;;
34489;SDS011;20730;49.372;7.324;2023-06-22T14:24:20;15.25;;;4.97;;
34489;SDS011;20730;49.372;7.324;2023-06-22T14:26:51;12.13;;;4.32;;
34489;SDS011;20730;49.372;7.324;2023-06-22T14:29:17;12.30;;;4.65;;
34489;SDS011;20730;49.372;7.324;2023-06-22T14:31:45;13.15;;;4.30;;
34489;SDS011;20730;49.372;7.324;2023-06-22T14:34:13;11.48;;;4.47;;
34489;SDS011;20730;49.372;7.324;2023-06-22T14:36:40;20.73;;;4.35;;
34489;SDS011;20730;49.372;7.324;2023-06-22T14:39:06;13.45;;;3.70;;
34489;SDS011;20730;49.372;7.324;2023-06-22T14:41:33;13.23;;;3.50;;
34489;SDS011;20730;49.372;7.324;2023-06-22T14:44:00;9.80;;;3.33;;